This is the latest recevied weather packets stored in our database for station/object 9W2CEW-1. If no packets are shown the sender has not sent any weather packets the latest 1 day(s).
| Time | Temp. | Humidity | Pressure | Rain* | Wind** | Luminosity | Snow |
|---|---|---|---|---|---|---|---|
| 1777892649 | 31.67° C | 66% | 1002.4 hPa | - | - | - | - |
| 1777891749 | 32.78° C | 64% | 1002.1 hPa | - | - | - | - |
| 1777890851 | 33.33° C | 60% | 1002.1 hPa | - | - | - | - |
| 1777889949 | 33.89° C | 60% | 1001.6 hPa | - | - | - | - |
| 1777889048 | 32.78° C | 62% | 1001.4 hPa | - | - | - | - |
| 1777888148 | 33.33° C | 58% | 1001.4 hPa | - | - | - | - |
| 1777887248 | 35° C | 55% | 1001.6 hPa | - | - | - | - |
| 1777886348 | 35° C | 54% | 1001.9 hPa | - | - | - | - |
| 1777885448 | 35° C | 57% | 1002.2 hPa | - | - | - | - |
| 1777884548 | 34.44° C | 58% | 1002.4 hPa | - | - | - | - |
| 1777884162 | 27.78° C | 95% | 1005.4 hPa | - | - | - | - |
| 1777883648 | 33.33° C | 61% | 1002.3 hPa | - | - | - | - |
| 1777882748 | 34.44° C | 59% | 1002.6 hPa | - | - | - | - |
| 1777881849 | 35° C | 54% | 1002.3 hPa | - | - | - | - |
| 1777880949 | 33.89° C | 56% | 1002.7 hPa | - | - | - | - |
| 1777880287 | 26.11° C | 100% | 1005.6 hPa | - | - | - | - |
| 1777880049 | 36.11° C | 54% | 1003.1 hPa | - | - | - | - |
| 1777879149 | 35.56° C | 55% | 1003.2 hPa | - | - | - | - |
| 1777878249 | 32.22° C | 73% | 1003.8 hPa | - | - | - | - |
| 1777877349 | 31.11° C | 80% | 1004.1 hPa | - | - | - | - |
| 1777876940 | 26.11° C | 100% | 1005.8 hPa | - | - | - | - |
| 1777876455 | 29.44° C | 84% | 1004.6 hPa | - | - | - | - |
| 1777875549 | 27.78° C | 86% | 1004.8 hPa | - | - | - | - |
| 1777874650 | 27.78° C | 95% | 1005.4 hPa | - | - | - | - |
| 1777873749 | 26.11° C | 100% | 1005.6 hPa | - | - | - | - |
* Rain since midnight (hover to see other rain measurements)
** Current wind speed in m/s (hover to see current wind gust speed)